createdAt,value
2018-09-29T00:00:42.195Z,99.90
2018-09-29T00:03:11.463Z,99.90
2018-09-29T00:05:40.529Z,99.90
2018-09-29T00:08:09.713Z,99.90
2018-09-29T00:10:39.629Z,99.90
2018-09-29T00:13:08.719Z,99.90
2018-09-29T00:15:37.794Z,99.90
2018-09-29T00:18:07.219Z,99.90
2018-09-29T00:20:36.329Z,99.90
2018-09-29T00:23:05.453Z,99.90
2018-09-29T00:25:34.917Z,99.90
2018-09-29T00:28:04.283Z,99.90
2018-09-29T00:30:33.706Z,99.90
2018-09-29T00:33:02.927Z,99.90
2018-09-29T00:35:32.129Z,99.90
2018-09-29T00:38:01.301Z,99.90
2018-09-29T00:40:31.072Z,99.90
2018-09-29T00:43:00.575Z,99.90
2018-09-29T00:45:29.641Z,99.90
2018-09-29T00:47:59.746Z,99.90
2018-09-29T00:50:28.926Z,99.90
2018-09-29T00:52:58.522Z,99.90
2018-09-29T00:55:28.233Z,99.90
2018-09-29T00:57:57.295Z,99.90
2018-09-29T01:00:26.379Z,99.90
2018-09-29T01:02:55.451Z,99.90
2018-09-29T01:05:24.620Z,99.90
2018-09-29T01:07:53.705Z,99.90
2018-09-29T01:10:23.259Z,99.90
2018-09-29T01:12:52.348Z,99.90
2018-09-29T01:15:21.699Z,99.90
2018-09-29T01:17:50.808Z,99.90
2018-09-29T01:20:19.969Z,99.90
2018-09-29T01:22:49.051Z,99.90
2018-09-29T01:25:18.199Z,99.90
2018-09-29T01:27:47.327Z,99.90
2018-09-29T01:30:16.935Z,99.90
2018-09-29T01:32:46.109Z,99.90
2018-09-29T01:35:15.216Z,99.90
2018-09-29T01:37:44.361Z,99.90
2018-09-29T01:40:13.576Z,99.90
2018-09-29T01:42:42.765Z,99.90
2018-09-29T01:45:12.117Z,99.90
2018-09-29T01:47:41.719Z,99.90
2018-09-29T01:50:10.819Z,99.90
2018-09-29T01:52:39.905Z,99.90
2018-09-29T01:55:09.007Z,99.90
2018-09-29T01:57:38.120Z,99.90
2018-09-29T02:00:07.257Z,99.90
2018-09-29T02:02:36.414Z,99.90
2018-09-29T02:05:05.569Z,99.90
2018-09-29T02:07:35.251Z,99.90
2018-09-29T02:10:04.414Z,99.90
2018-09-29T02:12:33.846Z,99.90
2018-09-29T02:15:02.939Z,99.90
2018-09-29T02:17:32.037Z,99.90
2018-09-29T02:20:01.796Z,99.90
2018-09-29T02:22:30.907Z,99.90
2018-09-29T02:25:00.047Z,99.90
2018-09-29T02:27:29.136Z,99.90
2018-09-29T02:29:58.246Z,99.90
2018-09-29T02:32:27.357Z,99.90
2018-09-29T02:34:56.457Z,99.90
2018-09-29T02:37:25.550Z,99.90
2018-09-29T02:39:54.669Z,99.90
2018-09-29T02:42:23.739Z,99.90
2018-09-29T02:44:52.845Z,99.90
2018-09-29T02:47:22.562Z,99.90
2018-09-29T02:49:51.693Z,99.90
2018-09-29T02:52:20.822Z,99.90
2018-09-29T02:54:49.934Z,99.90
2018-09-29T02:57:19.011Z,99.90
2018-09-29T02:59:48.118Z,99.90
2018-09-29T03:02:17.270Z,99.90
2018-09-29T03:04:46.355Z,99.90
2018-09-29T03:07:15.589Z,99.90
2018-09-29T03:09:44.601Z,99.90
2018-09-29T03:12:13.737Z,99.90
2018-09-29T03:14:43.095Z,99.90
2018-09-29T03:17:12.192Z,99.90
2018-09-29T03:19:41.282Z,99.90
2018-09-29T03:22:11.377Z,99.90
2018-09-29T03:24:41.097Z,99.90
2018-09-29T03:27:10.200Z,99.90
2018-09-29T03:29:39.611Z,99.90
2018-09-29T03:32:09.281Z,99.90
2018-09-29T03:34:38.464Z,99.90
2018-09-29T03:37:07.636Z,99.90
2018-09-29T03:39:36.695Z,99.90
2018-09-29T03:42:05.835Z,99.90
2018-09-29T03:44:34.930Z,99.90
2018-09-29T03:47:03.985Z,99.90
2018-09-29T03:49:33.276Z,99.90
2018-09-29T03:52:02.592Z,99.90
2018-09-29T03:54:31.926Z,99.90
2018-09-29T03:57:01.041Z,99.90
2018-09-29T03:59:30.125Z,99.90
2018-09-29T04:01:59.248Z,99.90
2018-09-29T04:04:28.353Z,99.90
2018-09-29T04:06:57.467Z,99.90
2018-09-29T04:09:27.379Z,99.90
2018-09-29T04:11:56.465Z,99.90
2018-09-29T04:14:25.560Z,99.90
2018-09-29T04:16:54.657Z,99.90
2018-09-29T04:19:23.781Z,99.90
2018-09-29T04:21:52.947Z,99.90
2018-09-29T04:24:22.049Z,99.90
2018-09-29T04:26:51.148Z,99.90
2018-09-29T04:29:20.230Z,99.90
2018-09-29T04:31:49.303Z,99.90
2018-09-29T04:34:18.491Z,99.90
2018-09-29T04:36:47.745Z,99.90
2018-09-29T04:39:16.829Z,99.90
2018-09-29T04:41:46.417Z,99.90
2018-09-29T04:44:15.508Z,99.90
2018-09-29T04:46:44.595Z,99.90
2018-09-29T04:49:14.013Z,99.90
2018-09-29T04:51:43.385Z,99.90
2018-09-29T04:54:13.029Z,99.90
2018-09-29T04:56:42.129Z,99.90
2018-09-29T04:59:11.300Z,99.90
2018-09-29T05:01:40.401Z,99.90
2018-09-29T05:04:09.483Z,99.90
2018-09-29T05:06:38.644Z,99.90
2018-09-29T05:09:08.902Z,99.90
2018-09-29T05:11:38.001Z,99.90
2018-09-29T05:14:08.198Z,99.90
2018-09-29T05:16:37.929Z,99.90
2018-09-29T05:19:07.097Z,99.90
2018-09-29T05:21:36.217Z,99.90
2018-09-29T05:24:05.375Z,99.90
2018-09-29T05:26:34.485Z,99.90
2018-09-29T05:29:04.210Z,99.90
2018-09-29T05:31:33.367Z,99.90
2018-09-29T05:34:02.473Z,99.90
2018-09-29T05:36:31.598Z,99.90
2018-09-29T05:39:00.794Z,99.90
2018-09-29T05:41:29.904Z,99.90
2018-09-29T05:43:58.979Z,99.90
2018-09-29T05:46:28.029Z,99.90
2018-09-29T05:48:57.108Z,99.90
2018-09-29T05:51:27.079Z,99.90
2018-09-29T05:53:56.601Z,99.90
2018-09-29T05:56:25.599Z,99.90
2018-09-29T05:58:55.062Z,99.90
2018-09-29T06:01:24.168Z,99.90
2018-09-29T06:03:53.240Z,99.90
2018-09-29T06:06:22.324Z,99.90
2018-09-29T06:08:51.384Z,99.90
2018-09-29T06:11:20.494Z,99.90
2018-09-29T06:13:49.579Z,99.90
2018-09-29T06:16:18.668Z,99.90
2018-09-29T06:18:47.747Z,99.90
2018-09-29T06:21:16.776Z,99.90
2018-09-29T06:23:45.906Z,99.90
2018-09-29T06:26:14.993Z,99.90
2018-09-29T06:28:44.190Z,99.90
2018-09-29T06:31:13.352Z,99.90
2018-09-29T06:33:42.684Z,99.90
2018-09-29T06:36:11.758Z,99.90
2018-09-29T06:38:40.831Z,99.90
2018-09-29T06:41:09.931Z,99.90
2018-09-29T06:43:38.995Z,99.90
2018-09-29T06:46:08.146Z,99.90
2018-09-29T06:48:37.214Z,99.90
2018-09-29T06:51:06.386Z,99.90
2018-09-29T06:53:35.542Z,99.90
2018-09-29T06:56:05.006Z,99.90
2018-09-29T06:58:34.065Z,99.90
2018-09-29T07:01:03.156Z,99.90
2018-09-29T07:03:32.201Z,99.90
2018-09-29T07:06:01.287Z,99.90
2018-09-29T07:08:30.360Z,99.90
2018-09-29T07:10:59.440Z,99.90
2018-09-29T07:13:28.529Z,99.90
2018-09-29T07:15:57.654Z,99.90
2018-09-29T07:18:26.715Z,99.90
2018-09-29T07:20:55.868Z,99.90
2018-09-29T07:23:25.336Z,99.90
2018-09-29T07:25:54.373Z,99.90
2018-09-29T07:28:23.456Z,99.90
2018-09-29T07:30:52.675Z,99.90
2018-09-29T07:33:21.786Z,99.90
2018-09-29T07:35:50.910Z,99.90
2018-09-29T07:38:20.012Z,99.90
2018-09-29T07:40:49.073Z,99.90
2018-09-29T07:43:18.170Z,99.90
2018-09-29T07:45:47.271Z,99.90
2018-09-29T07:48:16.348Z,99.90
2018-09-29T07:50:45.433Z,99.90
2018-09-29T07:53:14.514Z,99.90
2018-09-29T07:55:43.618Z,99.90
2018-09-29T07:58:12.715Z,99.90
2018-09-29T08:00:41.771Z,99.90
2018-09-29T08:03:11.173Z,99.90
2018-09-29T08:05:40.261Z,99.90
2018-09-29T08:08:09.375Z,99.90
2018-09-29T08:10:38.464Z,99.90
2018-09-29T08:13:07.577Z,99.90
2018-09-29T08:15:36.678Z,99.90
2018-09-29T08:18:06.190Z,99.90
2018-09-29T08:20:35.322Z,99.90
2018-09-29T08:23:04.443Z,99.90
2018-09-29T08:25:33.558Z,99.90
2018-09-29T08:28:03.047Z,99.90
2018-09-29T08:30:32.520Z,99.90
2018-09-29T08:33:01.593Z,99.90
2018-09-29T08:35:30.718Z,99.90
2018-09-29T08:37:59.773Z,99.90
2018-09-29T08:40:28.848Z,99.90
2018-09-29T08:42:57.938Z,99.90
2018-09-29T08:48:25.690Z,99.90
2018-09-29T08:50:54.785Z,99.90
2018-09-29T08:53:24.463Z,99.90
2018-09-29T08:55:53.466Z,99.90
2018-09-29T08:58:22.999Z,99.90
2018-09-29T09:00:52.062Z,99.90
2018-09-29T09:03:21.126Z,99.90
2018-09-29T09:05:50.229Z,99.90
2018-09-29T09:08:19.338Z,99.90
2018-09-29T09:10:48.428Z,99.90
2018-09-29T09:13:17.456Z,99.90
2018-09-29T09:15:46.581Z,99.90
2018-09-29T09:18:15.682Z,99.90
2018-09-29T09:20:44.767Z,99.90
2018-09-29T09:23:13.949Z,99.90
2018-09-29T09:25:42.964Z,99.90
2018-09-29T09:28:12.030Z,99.90
2018-09-29T09:30:41.117Z,99.90
2018-09-29T09:33:10.209Z,99.90
2018-09-29T09:35:39.297Z,99.90
2018-09-29T09:38:08.356Z,99.90
2018-09-29T09:40:37.442Z,99.90
2018-09-29T09:43:06.598Z,99.90
2018-09-29T09:45:35.762Z,99.90
2018-09-29T09:48:04.895Z,99.90
2018-09-29T09:50:34.350Z,99.90
2018-09-29T09:53:03.432Z,99.90
2018-09-29T09:55:32.550Z,99.90
2018-09-29T09:58:01.623Z,99.90
2018-09-29T10:00:36.230Z,99.90
2018-09-29T10:03:10.526Z,99.90
2018-09-29T10:05:39.610Z,99.90
2018-09-29T10:08:08.687Z,99.90
2018-09-29T10:10:37.757Z,99.90
2018-09-29T10:13:06.842Z,99.90
2018-09-29T10:15:35.935Z,99.90
2018-09-29T10:18:05.182Z,99.90
2018-09-29T10:20:34.314Z,99.90
2018-09-29T10:23:03.387Z,99.90
2018-09-29T10:25:32.446Z,99.90
2018-09-29T10:28:01.542Z,99.90
2018-09-29T10:30:30.615Z,99.90
2018-09-29T10:32:59.682Z,99.90
2018-09-29T10:35:28.782Z,99.90
2018-09-29T10:37:58.322Z,99.90
2018-09-29T10:40:27.424Z,99.90
2018-09-29T10:42:56.502Z,99.90
2018-09-29T10:45:25.612Z,99.90
2018-09-29T10:47:54.725Z,99.90
2018-09-29T10:50:23.808Z,99.90
2018-09-29T10:52:52.984Z,99.30
2018-09-29T10:55:22.040Z,97.90
2018-09-29T10:57:51.082Z,96.80
2018-09-29T11:00:20.164Z,95.40
2018-09-29T11:02:49.415Z,95.30
2018-09-29T11:05:18.482Z,93.90
2018-09-29T11:07:47.570Z,92.60
2018-09-29T11:10:16.656Z,91.70
2018-09-29T11:12:45.736Z,90.20
2018-09-29T11:15:14.810Z,87.40
2018-09-29T11:17:43.958Z,86.20
2018-09-29T11:20:13.074Z,87.00
2018-09-29T11:22:42.150Z,84.90
2018-09-29T11:25:11.258Z,83.60
2018-09-29T11:27:40.365Z,84.40
2018-09-29T11:30:09.433Z,80.90
2018-09-29T11:32:38.492Z,84.00
2018-09-29T11:35:07.723Z,80.00
2018-09-29T11:37:36.818Z,79.10
2018-09-29T11:40:05.931Z,78.50
2018-09-29T11:42:35.031Z,78.20
2018-09-29T11:45:04.162Z,81.30
2018-09-29T11:47:33.310Z,81.80
2018-09-29T11:50:02.426Z,78.50
2018-09-29T11:52:31.504Z,75.40
2018-09-29T11:55:00.602Z,73.10
2018-09-29T11:57:30.014Z,74.70
2018-09-29T11:59:59.114Z,72.80
2018-09-29T12:02:28.206Z,72.40
2018-09-29T12:04:57.556Z,71.00
2018-09-29T12:07:26.657Z,70.30
2018-09-29T12:09:55.741Z,70.50
2018-09-29T12:12:24.843Z,71.10
2018-09-29T12:14:53.929Z,70.90
2018-09-29T12:17:23.106Z,70.70
2018-09-29T12:19:52.235Z,67.80
2018-09-29T12:22:21.385Z,67.50
2018-09-29T12:24:51.446Z,66.80
2018-09-29T12:27:24.918Z,66.00
2018-09-29T12:29:49.714Z,66.20
2018-09-29T12:32:20.031Z,67.10
2018-09-29T12:34:49.144Z,67.80
2018-09-29T12:37:18.438Z,66.50
2018-09-29T12:39:47.550Z,65.80
2018-09-29T12:42:16.643Z,64.00
2018-09-29T12:44:46.309Z,64.90
2018-09-29T12:47:15.530Z,64.40
2018-09-29T12:49:45.105Z,67.70
2018-09-29T12:52:15.014Z,64.90
2018-09-29T12:54:44.198Z,64.40
2018-09-29T12:57:13.402Z,68.80
2018-09-29T12:59:42.602Z,70.60
2018-09-29T13:02:13.044Z,69.30
2018-09-29T13:04:42.140Z,70.00
2018-09-29T13:07:11.394Z,70.80
2018-09-29T13:09:40.506Z,69.20
2018-09-29T13:12:10.258Z,67.50
2018-09-29T13:14:40.105Z,69.20
2018-09-29T13:17:09.954Z,65.80
2018-09-29T13:19:39.185Z,64.90
2018-09-29T13:22:08.393Z,64.00
2018-09-29T13:24:37.590Z,65.60
2018-09-29T13:27:06.950Z,65.80
2018-09-29T13:29:36.182Z,64.10
2018-09-29T13:32:05.424Z,64.00
2018-09-29T13:34:34.699Z,63.90
2018-09-29T13:37:03.962Z,62.80
2018-09-29T13:39:33.718Z,63.60
2018-09-29T13:42:02.854Z,61.80
2018-09-29T13:44:31.934Z,61.50
2018-09-29T13:47:01.035Z,61.40
2018-09-29T13:49:30.217Z,59.60
2018-09-29T13:51:59.413Z,58.60
2018-09-29T13:54:28.593Z,57.50
2018-09-29T13:56:57.714Z,57.60
2018-09-29T13:59:26.891Z,57.80
2018-09-29T14:01:56.563Z,59.00
2018-09-29T14:04:25.702Z,58.10
2018-09-29T14:06:55.478Z,59.30
2018-09-29T14:09:25.166Z,57.80
2018-09-29T14:11:54.608Z,57.50
2018-09-29T14:14:23.970Z,57.10
2018-09-29T14:16:53.552Z,57.20
2018-09-29T14:19:22.670Z,58.00
2018-09-29T14:21:51.792Z,56.80
2018-09-29T14:24:20.900Z,56.10
2018-09-29T14:26:50.206Z,55.20
2018-09-29T14:29:19.588Z,55.90
2018-09-29T14:31:48.887Z,55.70
2018-09-29T14:34:18.082Z,55.60
2018-09-29T14:36:47.322Z,56.40
2018-09-29T14:39:16.521Z,56.20
2018-09-29T14:41:46.518Z,55.90
2018-09-29T14:44:15.618Z,55.90
2018-09-29T14:46:44.707Z,56.00
2018-09-29T14:49:13.821Z,56.10
2018-09-29T14:51:43.188Z,56.70
2018-09-29T14:54:12.332Z,57.70
2018-09-29T14:56:41.442Z,57.40
2018-09-29T14:59:10.838Z,57.60
2018-09-29T15:01:40.505Z,57.60
2018-09-29T15:04:09.646Z,57.50
2018-09-29T15:06:38.746Z,58.30
2018-09-29T15:09:09.907Z,58.70
2018-09-29T15:11:39.346Z,58.60
2018-09-29T15:14:09.040Z,58.00
2018-09-29T15:16:38.164Z,57.60
2018-09-29T15:19:07.829Z,59.10
2018-09-29T15:21:37.566Z,59.50
2018-09-29T15:24:06.695Z,58.70
2018-09-29T15:26:35.748Z,59.90
2018-09-29T15:29:04.920Z,60.40
2018-09-29T15:31:33.986Z,60.50
2018-09-29T15:34:03.107Z,62.10
2018-09-29T15:36:32.164Z,63.30
2018-09-29T15:39:01.271Z,63.70
2018-09-29T15:41:30.354Z,63.50
2018-09-29T15:43:59.433Z,63.00
2018-09-29T15:46:28.519Z,63.10
2018-09-29T15:48:57.644Z,63.20
2018-09-29T15:51:26.709Z,63.20
2018-09-29T15:53:55.795Z,62.80
2018-09-29T15:56:24.893Z,63.60
2018-09-29T15:58:53.988Z,63.80
2018-09-29T16:01:23.059Z,63.00
2018-09-29T16:03:52.157Z,64.50
2018-09-29T16:06:22.056Z,65.30
2018-09-29T16:08:51.119Z,65.90
2018-09-29T16:11:20.195Z,66.50
2018-09-29T16:13:49.465Z,67.10
2018-09-29T16:16:18.565Z,67.30
2018-09-29T16:18:47.643Z,68.30
2018-09-29T16:21:17.053Z,68.40
2018-09-29T16:23:46.157Z,69.30
2018-09-29T16:26:15.227Z,69.50
2018-09-29T16:28:45.240Z,69.80
2018-09-29T16:31:14.336Z,69.40
2018-09-29T16:33:43.429Z,70.60
2018-09-29T16:36:12.507Z,69.50
2018-09-29T16:38:41.580Z,69.90
2018-09-29T16:41:10.646Z,71.10
2018-09-29T16:43:39.770Z,71.90
2018-09-29T16:46:08.837Z,72.40
2018-09-29T16:48:37.888Z,73.20
2018-09-29T16:51:07.145Z,74.40
2018-09-29T16:53:36.206Z,75.20
2018-09-29T16:56:05.278Z,76.70
2018-09-29T16:58:34.371Z,77.60
2018-09-29T17:01:03.444Z,78.30
2018-09-29T17:03:32.734Z,79.40
2018-09-29T17:06:02.036Z,82.70
2018-09-29T17:08:31.154Z,83.70
2018-09-29T17:11:00.250Z,84.60
2018-09-29T17:13:29.383Z,85.90
2018-09-29T17:15:58.735Z,87.70
2018-09-29T17:18:27.745Z,88.20
2018-09-29T17:20:57.762Z,90.10
2018-09-29T17:23:26.856Z,90.30
2018-09-29T17:25:55.927Z,91.50
2018-09-29T17:28:25.102Z,92.10
2018-09-29T17:30:54.278Z,92.60
2018-09-29T17:33:23.345Z,93.40
2018-09-29T17:35:52.526Z,94.50
2018-09-29T17:38:21.627Z,94.40
2018-09-29T17:40:50.709Z,94.90
2018-09-29T17:43:19.844Z,95.50
2018-09-29T17:45:48.973Z,95.90
2018-09-29T17:48:18.076Z,97.10
2018-09-29T17:50:47.178Z,97.60
2018-09-29T17:53:16.272Z,98.20
2018-09-29T17:55:45.342Z,98.80
2018-09-29T17:58:14.429Z,99.50
2018-09-29T18:00:43.531Z,99.90
2018-09-29T18:03:12.664Z,99.90
2018-09-29T18:05:41.780Z,99.90
2018-09-29T18:08:10.910Z,99.90
2018-09-29T18:10:40.037Z,99.90
2018-09-29T18:13:09.101Z,99.90
2018-09-29T18:15:38.257Z,99.90
2018-09-29T18:18:07.718Z,99.90
2018-09-29T18:20:36.789Z,99.90
2018-09-29T18:23:06.162Z,99.90
2018-09-29T18:25:35.257Z,99.90
2018-09-29T18:28:04.418Z,99.90
2018-09-29T18:30:33.825Z,99.90
2018-09-29T18:33:02.943Z,99.90
2018-09-29T18:35:32.034Z,99.90
2018-09-29T18:38:01.153Z,99.90
2018-09-29T18:40:30.236Z,99.90
2018-09-29T18:42:59.370Z,99.90
2018-09-29T18:45:28.517Z,99.90
2018-09-29T18:47:57.600Z,99.90
2018-09-29T18:50:26.679Z,99.90
2018-09-29T18:52:55.857Z,99.90
2018-09-29T18:55:24.969Z,99.90
2018-09-29T18:57:54.053Z,99.90
2018-09-29T19:00:23.201Z,99.90
2018-09-29T19:02:52.273Z,99.90
2018-09-29T19:05:21.385Z,99.90
2018-09-29T19:07:50.791Z,99.90
2018-09-29T19:10:19.873Z,99.90
2018-09-29T19:12:49.111Z,99.90
2018-09-29T19:15:18.534Z,99.90
2018-09-29T19:17:47.995Z,99.90
2018-09-29T19:20:17.352Z,99.90
2018-09-29T19:22:46.606Z,99.90
2018-09-29T19:25:15.805Z,99.90
2018-09-29T19:27:45.000Z,99.90
2018-09-29T19:30:14.187Z,99.90
2018-09-29T19:32:43.356Z,99.90
2018-09-29T19:35:12.573Z,99.90
2018-09-29T19:37:42.537Z,99.90
2018-09-29T19:40:11.622Z,99.90
2018-09-29T19:42:40.888Z,99.90
2018-09-29T19:45:09.963Z,99.90
2018-09-29T19:47:39.068Z,99.90
2018-09-29T19:50:08.309Z,99.90
2018-09-29T19:52:37.509Z,99.90
2018-09-29T19:55:06.952Z,99.90
2018-09-29T19:57:36.066Z,99.90
2018-09-29T20:00:05.341Z,99.90
2018-09-29T20:02:34.420Z,99.90
2018-09-29T20:05:03.565Z,99.90
2018-09-29T20:07:32.661Z,99.90
2018-09-29T20:10:01.798Z,99.90
2018-09-29T20:12:30.985Z,99.90
2018-09-29T20:15:00.098Z,99.90
2018-09-29T20:17:29.245Z,99.90
2018-09-29T20:19:58.421Z,99.90
2018-09-29T20:22:27.720Z,99.90
2018-09-29T20:24:56.937Z,99.90
2018-09-29T20:27:26.029Z,99.90
2018-09-29T20:29:55.109Z,99.90
2018-09-29T20:32:24.220Z,99.90
2018-09-29T20:34:53.360Z,99.90
2018-09-29T20:37:22.580Z,99.90
2018-09-29T20:39:52.578Z,99.90
2018-09-29T20:42:21.682Z,99.90
2018-09-29T20:44:50.782Z,99.90
2018-09-29T20:47:19.909Z,99.90
2018-09-29T20:49:49.010Z,99.90
2018-09-29T20:52:18.118Z,99.90
2018-09-29T20:54:47.214Z,99.90
2018-09-29T20:57:16.916Z,99.90
2018-09-29T20:59:46.020Z,99.90
2018-09-29T21:02:15.173Z,99.90
2018-09-29T21:04:44.289Z,99.90
2018-09-29T21:07:13.396Z,99.90
2018-09-29T21:09:42.494Z,99.90
2018-09-29T21:12:11.604Z,99.90
2018-09-29T21:14:40.712Z,99.90
2018-09-29T21:17:09.808Z,99.90
2018-09-29T21:19:38.964Z,99.90
2018-09-29T21:22:08.096Z,99.90
2018-09-29T21:24:37.282Z,99.90
2018-09-29T21:27:06.384Z,99.90
2018-09-29T21:29:35.473Z,99.90
2018-09-29T21:32:04.583Z,99.90
2018-09-29T21:34:33.695Z,99.90
2018-09-29T21:37:03.649Z,99.90
2018-09-29T21:39:32.731Z,99.90
2018-09-29T21:42:01.849Z,99.90
2018-09-29T21:44:30.981Z,99.90
2018-09-29T21:47:00.138Z,99.90
2018-09-29T21:49:29.293Z,99.90
2018-09-29T21:51:58.381Z,99.90
2018-09-29T21:54:27.481Z,99.90
2018-09-29T21:56:56.567Z,99.90
2018-09-29T21:59:25.709Z,99.90
2018-09-29T22:01:54.839Z,99.90
2018-09-29T22:04:24.072Z,99.90
2018-09-29T22:06:53.761Z,99.90
2018-09-29T22:09:23.845Z,99.90
2018-09-29T22:11:53.271Z,99.90
2018-09-29T22:14:22.384Z,99.90
2018-09-29T22:16:51.485Z,99.90
2018-09-29T22:19:20.607Z,99.90
2018-09-29T22:21:49.741Z,99.90
2018-09-29T22:24:18.829Z,99.90
2018-09-29T22:26:48.121Z,99.90
2018-09-29T22:29:17.211Z,99.90
2018-09-29T22:31:46.412Z,99.90
2018-09-29T22:34:15.453Z,99.90
2018-09-29T22:36:44.545Z,99.90
2018-09-29T22:39:13.683Z,99.90
2018-09-29T22:41:42.782Z,99.90
2018-09-29T22:44:11.873Z,99.90
2018-09-29T22:46:40.976Z,99.90
2018-09-29T22:49:10.118Z,99.90
2018-09-29T22:51:39.254Z,99.90
2018-09-29T22:54:08.330Z,99.90
2018-09-29T22:56:37.524Z,99.90
2018-09-29T22:59:06.651Z,99.90
2018-09-29T23:01:35.739Z,99.90
2018-09-29T23:04:04.862Z,99.90
2018-09-29T23:06:33.960Z,99.90
2018-09-29T23:09:03.106Z,99.90
2018-09-29T23:11:32.221Z,99.90
2018-09-29T23:14:01.318Z,99.90
2018-09-29T23:16:30.454Z,99.90
2018-09-29T23:18:59.552Z,99.90
2018-09-29T23:21:28.600Z,99.90
2018-09-29T23:23:57.718Z,99.90
2018-09-29T23:26:26.828Z,99.90
2018-09-29T23:28:56.106Z,99.90
2018-09-29T23:31:25.192Z,99.90
2018-09-29T23:33:54.338Z,99.90
2018-09-29T23:36:23.446Z,99.90
2018-09-29T23:38:52.506Z,99.90
2018-09-29T23:41:21.590Z,99.90
2018-09-29T23:43:50.976Z,99.90
2018-09-29T23:46:20.129Z,99.90
2018-09-29T23:48:49.554Z,99.90
2018-09-29T23:51:18.682Z,99.90
2018-09-29T23:53:47.754Z,99.90
2018-09-29T23:56:16.894Z,99.90
2018-09-29T23:58:46.044Z,99.90
